sensor_id;sensor_type;location;lat;lon;timestamp;pressure;altitude;pressure_sealevel;temperature;humidity
78932;BME280;68331;53.362;55.932;2023-08-07T00:01:30;99526.59;;;20.01;63.63
78932;BME280;68331;53.362;55.932;2023-08-07T00:03:56;99535.34;;;20.03;63.40
78932;BME280;68331;53.362;55.932;2023-08-07T00:06:22;99533.66;;;20.02;63.60
78932;BME280;68331;53.362;55.932;2023-08-07T00:08:48;99535.25;;;20.04;63.71
78932;BME280;68331;53.362;55.932;2023-08-07T00:11:14;99533.03;;;20.09;63.78
78932;BME280;68331;53.362;55.932;2023-08-07T00:13:40;99531.22;;;20.10;63.53
78932;BME280;68331;53.362;55.932;2023-08-07T00:16:06;99532.72;;;20.14;63.57
78932;BME280;68331;53.362;55.932;2023-08-07T00:18:32;99538.16;;;20.12;63.60
78932;BME280;68331;53.362;55.932;2023-08-07T00:20:58;99536.72;;;20.08;63.52
78932;BME280;68331;53.362;55.932;2023-08-07T00:23:24;99535.72;;;20.09;63.95
78932;BME280;68331;53.362;55.932;2023-08-07T00:25:50;99536.56;;;20.10;63.74
78932;BME280;68331;53.362;55.932;2023-08-07T00:28:16;99536.72;;;20.08;63.78
78932;BME280;68331;53.362;55.932;2023-08-07T00:30:42;99540.38;;;20.07;64.07
78932;BME280;68331;53.362;55.932;2023-08-07T00:33:07;99543.16;;;20.06;63.98
78932;BME280;68331;53.362;55.932;2023-08-07T00:35:33;99536.09;;;20.05;64.00
78932;BME280;68331;53.362;55.932;2023-08-07T00:37:59;99539.00;;;20.02;64.10
78932;BME280;68331;53.362;55.932;2023-08-07T00:40:27;99534.63;;;20.01;64.06
78932;BME280;68331;53.362;55.932;2023-08-07T00:42:53;99532.91;;;20.00;64.15
78932;BME280;68331;53.362;55.932;2023-08-07T00:45:19;99538.16;;;20.01;64.39
78932;BME280;68331;53.362;55.932;2023-08-07T00:47:46;99541.06;;;19.98;64.12
78932;BME280;68331;53.362;55.932;2023-08-07T00:50:13;99533.88;;;19.98;64.42
78932;BME280;68331;53.362;55.932;2023-08-07T00:52:39;99543.97;;;19.95;64.52
78932;BME280;68331;53.362;55.932;2023-08-07T00:55:05;99540.53;;;19.93;64.65
78932;BME280;68331;53.362;55.932;2023-08-07T00:57:32;99546.97;;;19.90;64.70
78932;BME280;68331;53.362;55.932;2023-08-07T00:59:59;99544.44;;;19.89;65.19
78932;BME280;68331;53.362;55.932;2023-08-07T01:02:25;99544.53;;;19.87;65.25
78932;BME280;68331;53.362;55.932;2023-08-07T01:04:51;99544.31;;;19.90;64.85
78932;BME280;68331;53.362;55.932;2023-08-07T01:07:17;99541.63;;;19.90;64.92
78932;BME280;68331;53.362;55.932;2023-08-07T01:09:43;99546.88;;;19.92;65.04
78932;BME280;68331;53.362;55.932;2023-08-07T01:12:15;99544.19;;;19.92;65.50
78932;BME280;68331;53.362;55.932;2023-08-07T01:14:56;99552.09;;;19.93;65.18
78932;BME280;68331;53.362;55.932;2023-08-07T01:17:24;99545.16;;;19.91;65.19
78932;BME280;68331;53.362;55.932;2023-08-07T01:19:51;99544.31;;;19.90;65.11
78932;BME280;68331;53.362;55.932;2023-08-07T01:22:21;99545.16;;;19.91;65.07
78932;BME280;68331;53.362;55.932;2023-08-07T01:24:49;99545.91;;;19.93;65.29
78932;BME280;68331;53.362;55.932;2023-08-07T01:29:59;99536.03;;;19.93;65.47
78932;BME280;68331;53.362;55.932;2023-08-07T01:32:50;99549.31;;;19.95;65.25
78932;BME280;68331;53.362;55.932;2023-08-07T01:35:23;99543.75;;;19.98;65.42
78932;BME280;68331;53.362;55.932;2023-08-07T01:37:54;99540.94;;;20.00;65.39
78932;BME280;68331;53.362;55.932;2023-08-07T01:40:21;99536.41;;;20.00;65.38
78932;BME280;68331;53.362;55.932;2023-08-07T01:42:48;99542.53;;;20.02;65.46
78932;BME280;68331;53.362;55.932;2023-08-07T01:45:14;99542.16;;;20.07;65.13
78932;BME280;68331;53.362;55.932;2023-08-07T01:47:40;99534.88;;;20.09;65.46
78932;BME280;68331;53.362;55.932;2023-08-07T01:50:06;99528.31;;;20.13;64.89
78932;BME280;68331;53.362;55.932;2023-08-07T01:52:32;99540.16;;;20.21;64.95
78932;BME280;68331;53.362;55.932;2023-08-07T01:54:58;99541.84;;;20.23;64.77
78932;BME280;68331;53.362;55.932;2023-08-07T01:57:24;99542.50;;;20.26;64.79
78932;BME280;68331;53.362;55.932;2023-08-07T01:59:51;99534.47;;;20.26;64.65
78932;BME280;68331;53.362;55.932;2023-08-07T02:02:18;99542.63;;;20.36;64.61
78932;BME280;68331;53.362;55.932;2023-08-07T02:04:44;99549.09;;;20.44;64.56
78932;BME280;68331;53.362;55.932;2023-08-07T02:07:10;99551.75;;;20.44;64.78
78932;BME280;68331;53.362;55.932;2023-08-07T02:09:36;99554.34;;;20.46;64.58
78932;BME280;68331;53.362;55.932;2023-08-07T02:12:09;99550.44;;;20.50;64.71
78932;BME280;68331;53.362;55.932;2023-08-07T02:14:35;99549.91;;;20.69;64.17
78932;BME280;68331;53.362;55.932;2023-08-07T02:17:01;99547.94;;;20.82;63.72
78932;BME280;68331;53.362;55.932;2023-08-07T02:19:28;99553.56;;;21.02;63.59
78932;BME280;68331;53.362;55.932;2023-08-07T02:21:58;99554.38;;;21.25;62.91
78932;BME280;68331;53.362;55.932;2023-08-07T02:24:24;99566.59;;;21.51;61.85
78932;BME280;68331;53.362;55.932;2023-08-07T02:26:50;99561.56;;;21.58;61.80
78932;BME280;68331;53.362;55.932;2023-08-07T02:29:18;99567.78;;;21.47;61.64
78932;BME280;68331;53.362;55.932;2023-08-07T02:31:44;99563.66;;;21.32;62.38
78932;BME280;68331;53.362;55.932;2023-08-07T02:34:10;99566.59;;;21.18;63.08
78932;BME280;68331;53.362;55.932;2023-08-07T02:36:36;99556.00;;;21.05;63.26
78932;BME280;68331;53.362;55.932;2023-08-07T02:39:03;99555.63;;;20.98;63.82
78932;BME280;68331;53.362;55.932;2023-08-07T02:41:29;99561.72;;;20.89;64.05
78932;BME280;68331;53.362;55.932;2023-08-07T02:43:57;99553.81;;;20.87;63.86
78932;BME280;68331;53.362;55.932;2023-08-07T02:46:23;99553.69;;;20.89;64.28
78932;BME280;68331;53.362;55.932;2023-08-07T02:48:50;99562.22;;;20.94;64.32
78932;BME280;68331;53.362;55.932;2023-08-07T02:51:16;99561.47;;;20.92;64.17
78932;BME280;68331;53.362;55.932;2023-08-07T02:53:42;99559.53;;;20.94;64.51
78932;BME280;68331;53.362;55.932;2023-08-07T02:56:08;99561.50;;;21.03;64.45
78932;BME280;68331;53.362;55.932;2023-08-07T02:58:34;99556.25;;;21.13;64.17
78932;BME280;68331;53.362;55.932;2023-08-07T03:01:04;99551.59;;;21.26;63.58
78932;BME280;68331;53.362;55.932;2023-08-07T03:03:33;99554.91;;;21.41;63.46
78932;BME280;68331;53.362;55.932;2023-08-07T03:05:59;99555.13;;;21.49;63.37
78932;BME280;68331;53.362;55.932;2023-08-07T03:08:25;99558.28;;;21.54;63.20
78932;BME280;68331;53.362;55.932;2023-08-07T03:10:56;99554.63;;;21.55;63.36
78932;BME280;68331;53.362;55.932;2023-08-07T03:13:26;99558.03;;;21.46;64.21
78932;BME280;68331;53.362;55.932;2023-08-07T03:16:05;99561.56;;;21.47;64.49
78932;BME280;68331;53.362;55.932;2023-08-07T03:18:31;99564.75;;;21.52;64.54
78932;BME280;68331;53.362;55.932;2023-08-07T03:20:58;99551.69;;;21.58;64.20
78932;BME280;68331;53.362;55.932;2023-08-07T03:23:27;99552.88;;;21.66;64.54
78932;BME280;68331;53.362;55.932;2023-08-07T03:26:09;99545.50;;;21.79;63.62
78932;BME280;68331;53.362;55.932;2023-08-07T03:28:37;99554.78;;;22.18;62.69
78932;BME280;68331;53.362;55.932;2023-08-07T03:31:04;99547.56;;;22.61;61.49
78932;BME280;68331;53.362;55.932;2023-08-07T03:33:33;99548.22;;;22.84;60.39
78932;BME280;68331;53.362;55.932;2023-08-07T03:35:59;99550.81;;;22.85;60.58
78932;BME280;68331;53.362;55.932;2023-08-07T03:38:26;99556.28;;;23.05;59.88
78932;BME280;68331;53.362;55.932;2023-08-07T03:40:54;99557.88;;;22.86;60.06
78932;BME280;68331;53.362;55.932;2023-08-07T03:43:21;99566.38;;;22.61;61.08
78932;BME280;68331;53.362;55.932;2023-08-07T03:45:47;99553.13;;;22.48;61.51
78932;BME280;68331;53.362;55.932;2023-08-07T03:48:14;99551.13;;;22.40;61.81
78932;BME280;68331;53.362;55.932;2023-08-07T03:50:40;99552.50;;;22.35;61.94
78932;BME280;68331;53.362;55.932;2023-08-07T03:53:07;99550.06;;;22.32;62.34
78932;BME280;68331;53.362;55.932;2023-08-07T03:55:37;99550.44;;;22.27;62.31
78932;BME280;68331;53.362;55.932;2023-08-07T03:58:04;99545.78;;;22.29;62.49
78932;BME280;68331;53.362;55.932;2023-08-07T04:00:30;99541.06;;;22.42;62.27
78932;BME280;68331;53.362;55.932;2023-08-07T04:03:04;99540.72;;;22.87;60.71
78932;BME280;68331;53.362;55.932;2023-08-07T04:05:33;99539.56;;;23.01;60.11
78932;BME280;68331;53.362;55.932;2023-08-07T04:07:59;99534.72;;;22.95;60.30
78932;BME280;68331;53.362;55.932;2023-08-07T04:10:26;99553.16;;;23.00;60.43
78932;BME280;68331;53.362;55.932;2023-08-07T04:12:52;99551.59;;;23.07;60.35
78932;BME280;68331;53.362;55.932;2023-08-07T04:27:42;99530.28;;;26.52;50.47
78932;BME280;68331;53.362;55.932;2023-08-07T04:30:08;99531.34;;;26.59;49.87
78932;BME280;68331;53.362;55.932;2023-08-07T04:32:34;99524.56;;;26.37;50.53
78932;BME280;68331;53.362;55.932;2023-08-07T04:35:00;99519.56;;;25.71;52.14
78932;BME280;68331;53.362;55.932;2023-08-07T04:37:29;99514.06;;;25.17;53.64
78932;BME280;68331;53.362;55.932;2023-08-07T04:39:56;99515.56;;;24.65;54.93
78932;BME280;68331;53.362;55.932;2023-08-07T04:42:22;99516.19;;;24.29;55.69
78932;BME280;68331;53.362;55.932;2023-08-07T04:44:48;99504.72;;;24.08;56.73
78932;BME280;68331;53.362;55.932;2023-08-07T04:47:14;99504.63;;;24.00;56.83
78932;BME280;68331;53.362;55.932;2023-08-07T04:49:40;99498.50;;;23.98;57.32
78932;BME280;68331;53.362;55.932;2023-08-07T04:52:06;99496.94;;;23.95;57.43
78932;BME280;68331;53.362;55.932;2023-08-07T04:54:32;99496.66;;;23.98;57.28
78932;BME280;68331;53.362;55.932;2023-08-07T04:56:58;99502.03;;;24.08;57.47
78932;BME280;68331;53.362;55.932;2023-08-07T04:59:24;99500.75;;;24.12;57.00
78932;BME280;68331;53.362;55.932;2023-08-07T05:01:50;99495.78;;;24.17;57.12
78932;BME280;68331;53.362;55.932;2023-08-07T05:04:15;99501.16;;;24.27;56.63
78932;BME280;68331;53.362;55.932;2023-08-07T05:06:41;99475.91;;;24.18;56.42
78932;BME280;68331;53.362;55.932;2023-08-07T05:09:07;99483.84;;;24.29;56.21
78932;BME280;68331;53.362;55.932;2023-08-07T05:11:33;99488.94;;;24.32;56.15
78932;BME280;68331;53.362;55.932;2023-08-07T05:13:59;99478.44;;;24.39;55.86
78932;BME280;68331;53.362;55.932;2023-08-07T05:16:25;99484.13;;;24.83;55.01
78932;BME280;68331;53.362;55.932;2023-08-07T05:18:51;99477.91;;;25.91;51.94
78932;BME280;68331;53.362;55.932;2023-08-07T05:21:17;99478.59;;;26.63;50.47
78932;BME280;68331;53.362;55.932;2023-08-07T05:23:43;99464.50;;;26.52;50.23
78932;BME280;68331;53.362;55.932;2023-08-07T05:26:09;99483.16;;;26.19;51.12
78932;BME280;68331;53.362;55.932;2023-08-07T05:28:35;99463.66;;;25.71;52.25
78932;BME280;68331;53.362;55.932;2023-08-07T05:31:01;99480.28;;;25.41;52.65
78932;BME280;68331;53.362;55.932;2023-08-07T05:33:27;99474.47;;;25.36;53.12
78932;BME280;68331;53.362;55.932;2023-08-07T05:35:53;99468.78;;;25.57;52.77
78932;BME280;68331;53.362;55.932;2023-08-07T05:38:20;99465.75;;;25.78;52.34
78932;BME280;68331;53.362;55.932;2023-08-07T05:40:46;99459.97;;;25.90;52.15
78932;BME280;68331;53.362;55.932;2023-08-07T05:43:12;99460.34;;;26.39;51.38
78932;BME280;68331;53.362;55.932;2023-08-07T05:45:38;99455.13;;;27.90;47.53
78932;BME280;68331;53.362;55.932;2023-08-07T05:48:06;99449.63;;;30.70;41.03
78932;BME280;68331;53.362;55.932;2023-08-07T05:50:32;99445.41;;;33.24;35.73
78932;BME280;68331;53.362;55.932;2023-08-07T05:52:58;99447.56;;;34.81;32.56
78932;BME280;68331;53.362;55.932;2023-08-07T05:55:24;99438.25;;;34.95;32.12
78932;BME280;68331;53.362;55.932;2023-08-07T05:57:51;99434.31;;;34.78;32.45
78932;BME280;68331;53.362;55.932;2023-08-07T06:00:17;99439.75;;;36.87;29.36
78932;BME280;68331;53.362;55.932;2023-08-07T06:02:45;99426.13;;;38.36;26.93
78932;BME280;68331;53.362;55.932;2023-08-07T06:05:11;99435.69;;;39.49;24.97
78932;BME280;68331;53.362;55.932;2023-08-07T06:07:39;99440.34;;;40.45;23.38
78932;BME280;68331;53.362;55.932;2023-08-07T06:10:06;99432.09;;;40.11;23.67
78932;BME280;68331;53.362;55.932;2023-08-07T06:12:32;99429.91;;;41.08;22.64
78932;BME280;68331;53.362;55.932;2023-08-07T06:14:58;99424.19;;;41.74;21.90
78932;BME280;68331;53.362;55.932;2023-08-07T06:17:24;99422.69;;;41.61;21.66
78932;BME280;68331;53.362;55.932;2023-08-07T06:19:50;99416.34;;;41.93;21.14
78932;BME280;68331;53.362;55.932;2023-08-07T06:22:16;99419.78;;;42.42;20.34
78932;BME280;68331;53.362;55.932;2023-08-07T06:24:42;99415.44;;;43.30;19.31
78932;BME280;68331;53.362;55.932;2023-08-07T06:27:08;99416.63;;;44.21;18.19
78932;BME280;68331;53.362;55.932;2023-08-07T06:29:34;99424.72;;;44.07;17.96
78932;BME280;68331;53.362;55.932;2023-08-07T06:32:00;99424.13;;;43.90;18.16
78932;BME280;68331;53.362;55.932;2023-08-07T06:34:25;99418.31;;;42.82;19.59
78932;BME280;68331;53.362;55.932;2023-08-07T06:36:51;99408.44;;;41.74;20.51
78932;BME280;68331;53.362;55.932;2023-08-07T06:39:17;99403.72;;;42.44;19.87
78932;BME280;68331;53.362;55.932;2023-08-07T06:41:44;99414.13;;;43.68;18.39
78932;BME280;68331;53.362;55.932;2023-08-07T06:44:12;99409.94;;;44.37;17.89
78932;BME280;68331;53.362;55.932;2023-08-07T06:46:38;99407.72;;;45.14;17.25
78932;BME280;68331;53.362;55.932;2023-08-07T06:49:04;99396.31;;;45.06;16.58
78932;BME280;68331;53.362;55.932;2023-08-07T06:51:31;99402.25;;;42.84;19.01
78932;BME280;68331;53.362;55.932;2023-08-07T06:53:56;99392.56;;;41.38;20.70
78932;BME280;68331;53.362;55.932;2023-08-07T06:56:23;99399.53;;;39.80;22.15
78932;BME280;68331;53.362;55.932;2023-08-07T06:58:49;99392.63;;;37.74;24.66
78932;BME280;68331;53.362;55.932;2023-08-07T07:01:16;99390.16;;;38.31;24.23
78932;BME280;68331;53.362;55.932;2023-08-07T07:03:42;99398.69;;;39.34;23.10
78932;BME280;68331;53.362;55.932;2023-08-07T07:06:17;99395.22;;;39.55;22.41
78932;BME280;68331;53.362;55.932;2023-08-07T07:08:43;99383.50;;;38.79;23.39
78932;BME280;68331;53.362;55.932;2023-08-07T07:11:09;99380.38;;;36.97;25.54
78932;BME280;68331;53.362;55.932;2023-08-07T07:13:37;99388.34;;;35.25;28.16
78932;BME280;68331;53.362;55.932;2023-08-07T07:16:03;99382.59;;;33.84;30.01
78932;BME280;68331;53.362;55.932;2023-08-07T07:18:29;99385.22;;;33.10;32.13
78932;BME280;68331;53.362;55.932;2023-08-07T07:20:59;99383.53;;;32.27;33.19
78932;BME280;68331;53.362;55.932;2023-08-07T07:23:26;99386.78;;;31.23;34.55
78932;BME280;68331;53.362;55.932;2023-08-07T07:25:52;99383.34;;;30.78;35.87
78932;BME280;68331;53.362;55.932;2023-08-07T07:28:18;99390.00;;;30.46;36.83
78932;BME280;68331;53.362;55.932;2023-08-07T07:30:45;99376.03;;;30.19;36.77
78932;BME280;68331;53.362;55.932;2023-08-07T07:33:11;99382.00;;;30.15;36.96
78932;BME280;68331;53.362;55.932;2023-08-07T07:35:39;99367.06;;;29.96;37.24
78932;BME280;68331;53.362;55.932;2023-08-07T07:38:06;99385.63;;;29.92;37.87
78932;BME280;68331;53.362;55.932;2023-08-07T07:40:34;99370.88;;;29.49;38.42
78932;BME280;68331;53.362;55.932;2023-08-07T07:43:00;99372.72;;;29.48;38.78
78932;BME280;68331;53.362;55.932;2023-08-07T07:45:26;99374.50;;;29.64;38.96
78932;BME280;68331;53.362;55.932;2023-08-07T07:47:52;99368.88;;;29.65;39.41
78932;BME280;68331;53.362;55.932;2023-08-07T07:50:18;99375.72;;;29.61;39.49
78932;BME280;68331;53.362;55.932;2023-08-07T07:52:44;99368.31;;;29.70;39.06
78932;BME280;68331;53.362;55.932;2023-08-07T07:55:10;99371.81;;;29.79;38.33
78932;BME280;68331;53.362;55.932;2023-08-07T07:57:37;99366.97;;;30.04;37.79
78932;BME280;68331;53.362;55.932;2023-08-07T08:00:04;99362.16;;;30.29;37.69
78932;BME280;68331;53.362;55.932;2023-08-07T08:02:37;99368.88;;;30.63;36.12
78932;BME280;68331;53.362;55.932;2023-08-07T08:05:03;99360.34;;;30.36;35.86
78932;BME280;68331;53.362;55.932;2023-08-07T08:07:30;99363.63;;;30.17;36.15
78932;BME280;68331;53.362;55.932;2023-08-07T08:09:57;99367.66;;;30.21;36.31
78932;BME280;68331;53.362;55.932;2023-08-07T08:12:24;99363.97;;;30.13;38.10
78932;BME280;68331;53.362;55.932;2023-08-07T08:14:50;99364.50;;;29.56;39.24
78932;BME280;68331;53.362;55.932;2023-08-07T08:17:16;99367.59;;;29.30;39.59
78932;BME280;68331;53.362;55.932;2023-08-07T08:19:42;99369.25;;;29.16;40.15
78932;BME280;68331;53.362;55.932;2023-08-07T08:22:08;99365.06;;;29.06;40.19
78932;BME280;68331;53.362;55.932;2023-08-07T08:24:34;99354.50;;;29.11;39.97
78932;BME280;68331;53.362;55.932;2023-08-07T08:27:00;99358.59;;;29.53;39.87
78932;BME280;68331;53.362;55.932;2023-08-07T08:29:26;99363.03;;;29.92;38.66
78932;BME280;68331;53.362;55.932;2023-08-07T08:31:55;99366.59;;;30.07;37.97
78932;BME280;68331;53.362;55.932;2023-08-07T08:34:21;99368.84;;;30.18;37.46
78932;BME280;68331;53.362;55.932;2023-08-07T08:36:48;99368.81;;;30.26;36.41
78932;BME280;68331;53.362;55.932;2023-08-07T08:39:14;99365.31;;;30.03;36.78
78932;BME280;68331;53.362;55.932;2023-08-07T08:41:41;99357.84;;;29.82;36.88
78932;BME280;68331;53.362;55.932;2023-08-07T08:44:10;99360.97;;;29.94;37.51
78932;BME280;68331;53.362;55.932;2023-08-07T08:46:42;99349.16;;;30.01;36.11
78932;BME280;68331;53.362;55.932;2023-08-07T08:49:08;99359.59;;;30.12;36.18
78932;BME280;68331;53.362;55.932;2023-08-07T08:51:37;99348.94;;;29.88;36.62
78932;BME280;68331;53.362;55.932;2023-08-07T08:54:03;99359.47;;;29.91;36.83
78932;BME280;68331;53.362;55.932;2023-08-07T08:56:30;99354.97;;;30.13;36.89
78932;BME280;68331;53.362;55.932;2023-08-07T08:58:57;99352.72;;;30.61;35.98
78932;BME280;68331;53.362;55.932;2023-08-07T09:01:23;99339.88;;;30.55;36.12
78932;BME280;68331;53.362;55.932;2023-08-07T09:03:49;99348.41;;;30.07;36.88
78932;BME280;68331;53.362;55.932;2023-08-07T09:06:18;99343.44;;;29.58;37.60
78932;BME280;68331;53.362;55.932;2023-08-07T09:08:45;99340.88;;;29.57;38.01
78932;BME280;68331;53.362;55.932;2023-08-07T09:11:12;99341.19;;;30.00;37.14
78932;BME280;68331;53.362;55.932;2023-08-07T09:13:43;99328.69;;;30.05;35.97
78932;BME280;68331;53.362;55.932;2023-08-07T09:16:11;99336.31;;;30.25;35.49
78932;BME280;68331;53.362;55.932;2023-08-07T09:18:37;99335.19;;;30.34;35.85
78932;BME280;68331;53.362;55.932;2023-08-07T09:21:04;99327.75;;;30.57;35.63
78932;BME280;68331;53.362;55.932;2023-08-07T09:23:30;99330.81;;;30.84;35.32
78932;BME280;68331;53.362;55.932;2023-08-07T09:26:04;99337.22;;;30.02;36.39
78932;BME280;68331;53.362;55.932;2023-08-07T09:28:31;99329.03;;;29.73;36.35
78932;BME280;68331;53.362;55.932;2023-08-07T09:30:58;99326.91;;;29.83;36.38
78932;BME280;68331;53.362;55.932;2023-08-07T09:33:25;99329.06;;;30.17;36.37
78932;BME280;68331;53.362;55.932;2023-08-07T09:35:52;99318.38;;;30.45;35.52
78932;BME280;68331;53.362;55.932;2023-08-07T09:38:22;99322.41;;;30.64;34.42
78932;BME280;68331;53.362;55.932;2023-08-07T09:40:49;99327.84;;;30.64;34.15
78932;BME280;68331;53.362;55.932;2023-08-07T09:43:21;99316.13;;;30.64;34.06
78932;BME280;68331;53.362;55.932;2023-08-07T09:45:48;99326.88;;;30.87;33.96
78932;BME280;68331;53.362;55.932;2023-08-07T09:48:24;99329.81;;;31.07;33.36
78932;BME280;68331;53.362;55.932;2023-08-07T09:50:51;99312.22;;;31.09;33.41
78932;BME280;68331;53.362;55.932;2023-08-07T09:53:17;99317.84;;;31.08;33.44
78932;BME280;68331;53.362;55.932;2023-08-07T09:55:43;99323.84;;;30.45;33.95
78932;BME280;68331;53.362;55.932;2023-08-07T09:58:11;99311.72;;;30.48;34.44
78932;BME280;68331;53.362;55.932;2023-08-07T10:00:40;99307.56;;;30.67;34.60
78932;BME280;68331;53.362;55.932;2023-08-07T10:03:07;99321.19;;;30.52;35.00
78932;BME280;68331;53.362;55.932;2023-08-07T10:05:33;99327.03;;;30.49;34.75
78932;BME280;68331;53.362;55.932;2023-08-07T10:07:59;99313.31;;;30.42;34.25
78932;BME280;68331;53.362;55.932;2023-08-07T10:10:27;99312.19;;;30.51;34.45
78932;BME280;68331;53.362;55.932;2023-08-07T10:12:54;99315.06;;;30.65;34.25
78932;BME280;68331;53.362;55.932;2023-08-07T10:15:21;99312.13;;;30.66;33.94
78932;BME280;68331;53.362;55.932;2023-08-07T10:17:47;99314.72;;;30.53;34.32
78932;BME280;68331;53.362;55.932;2023-08-07T10:20:14;99318.69;;;30.21;34.55
78932;BME280;68331;53.362;55.932;2023-08-07T10:22:40;99306.75;;;30.07;35.12
78932;BME280;68331;53.362;55.932;2023-08-07T10:25:09;99297.94;;;29.90;34.95
78932;BME280;68331;53.362;55.932;2023-08-07T10:27:37;99306.13;;;30.34;34.59
78932;BME280;68331;53.362;55.932;2023-08-07T10:30:10;99301.69;;;30.85;33.69
78932;BME280;68331;53.362;55.932;2023-08-07T10:32:48;99293.53;;;31.06;33.64
78932;BME280;68331;53.362;55.932;2023-08-07T10:35:24;99300.94;;;30.91;33.17
78932;BME280;68331;53.362;55.932;2023-08-07T10:37:51;99294.25;;;30.57;33.51
78932;BME280;68331;53.362;55.932;2023-08-07T10:40:18;99312.38;;;30.50;33.55
78932;BME280;68331;53.362;55.932;2023-08-07T10:45:22;99308.53;;;30.44;33.75
78932;BME280;68331;53.362;55.932;2023-08-07T10:50:32;99307.91;;;30.78;33.02
78932;BME280;68331;53.362;55.932;2023-08-07T10:53:02;99297.63;;;30.95;33.29
78932;BME280;68331;53.362;55.932;2023-08-07T10:55:48;99296.13;;;31.14;32.94
78932;BME280;68331;53.362;55.932;2023-08-07T10:58:22;99309.44;;;31.02;33.58
78932;BME280;68331;53.362;55.932;2023-08-07T11:00:52;99304.56;;;30.62;33.46
78932;BME280;68331;53.362;55.932;2023-08-07T11:03:41;99306.50;;;30.68;33.54
78932;BME280;68331;53.362;55.932;2023-08-07T11:06:09;99303.25;;;30.94;33.22
78932;BME280;68331;53.362;55.932;2023-08-07T11:08:37;99293.16;;;31.09;33.33
78932;BME280;68331;53.362;55.932;2023-08-07T11:11:04;99286.41;;;31.05;32.94
78932;BME280;68331;53.362;55.932;2023-08-07T11:13:31;99279.25;;;31.04;32.88
78932;BME280;68331;53.362;55.932;2023-08-07T11:16:01;99274.78;;;30.96;33.21
78932;BME280;68331;53.362;55.932;2023-08-07T11:18:28;99280.81;;;31.13;33.08
78932;BME280;68331;53.362;55.932;2023-08-07T11:20:55;99277.13;;;31.21;33.23
78932;BME280;68331;53.362;55.932;2023-08-07T11:23:42;99287.19;;;31.42;32.94
78932;BME280;68331;53.362;55.932;2023-08-07T11:26:10;99275.41;;;31.63;32.72
78932;BME280;68331;53.362;55.932;2023-08-07T11:28:36;99286.38;;;31.48;32.90
78932;BME280;68331;53.362;55.932;2023-08-07T11:31:02;99286.28;;;31.35;32.72
78932;BME280;68331;53.362;55.932;2023-08-07T11:33:29;99281.88;;;31.12;32.52
78932;BME280;68331;53.362;55.932;2023-08-07T11:35:55;99278.63;;;31.02;33.20
78932;BME280;68331;53.362;55.932;2023-08-07T11:38:31;99280.25;;;31.18;33.20
78932;BME280;68331;53.362;55.932;2023-08-07T11:40:59;99281.28;;;31.38;32.44
78932;BME280;68331;53.362;55.932;2023-08-07T11:43:30;99278.88;;;31.50;32.98
78932;BME280;68331;53.362;55.932;2023-08-07T11:46:04;99275.13;;;31.58;32.92
78932;BME280;68331;53.362;55.932;2023-08-07T11:48:32;99280.88;;;31.41;33.32
78932;BME280;68331;53.362;55.932;2023-08-07T11:50:59;99269.84;;;31.28;32.71
78932;BME280;68331;53.362;55.932;2023-08-07T11:53:28;99280.97;;;31.05;33.35
78932;BME280;68331;53.362;55.932;2023-08-07T11:55:55;99273.44;;;30.86;33.57
78932;BME280;68331;53.362;55.932;2023-08-07T11:58:24;99271.34;;;30.88;33.17
78932;BME280;68331;53.362;55.932;2023-08-07T12:00:51;99264.72;;;30.97;33.80
78932;BME280;68331;53.362;55.932;2023-08-07T12:05:54;99267.91;;;31.00;34.12
78932;BME280;68331;53.362;55.932;2023-08-07T12:08:21;99267.28;;;30.98;33.83
78932;BME280;68331;53.362;55.932;2023-08-07T12:10:53;99260.91;;;30.91;33.74
78932;BME280;68331;53.362;55.932;2023-08-07T12:13:24;99258.31;;;30.83;33.93
78932;BME280;68331;53.362;55.932;2023-08-07T12:15:53;99264.00;;;30.88;34.16
78932;BME280;68331;53.362;55.932;2023-08-07T12:18:22;99262.28;;;30.80;34.33
78932;BME280;68331;53.362;55.932;2023-08-07T12:21:00;99279.66;;;30.79;34.25
78932;BME280;68331;53.362;55.932;2023-08-07T12:23:32;99263.09;;;30.81;33.87
78932;BME280;68331;53.362;55.932;2023-08-07T12:25:58;99259.00;;;30.92;34.00
78932;BME280;68331;53.362;55.932;2023-08-07T12:28:25;99259.09;;;30.98;33.61
78932;BME280;68331;53.362;55.932;2023-08-07T12:30:51;99261.50;;;31.08;33.92
78932;BME280;68331;53.362;55.932;2023-08-07T12:33:18;99256.78;;;30.95;34.22
78932;BME280;68331;53.362;55.932;2023-08-07T12:35:45;99263.00;;;30.74;34.36
78932;BME280;68331;53.362;55.932;2023-08-07T12:38:11;99268.78;;;30.65;34.46
78932;BME280;68331;53.362;55.932;2023-08-07T12:40:40;99255.84;;;30.52;33.92
78932;BME280;68331;53.362;55.932;2023-08-07T12:43:06;99256.91;;;30.51;34.42
78932;BME280;68331;53.362;55.932;2023-08-07T12:45:33;99260.19;;;30.46;34.71
78932;BME280;68331;53.362;55.932;2023-08-07T12:48:00;99259.94;;;30.41;34.48
78932;BME280;68331;53.362;55.932;2023-08-07T12:50:27;99256.56;;;30.24;35.09
78932;BME280;68331;53.362;55.932;2023-08-07T12:52:54;99254.41;;;30.20;35.00
78932;BME280;68331;53.362;55.932;2023-08-07T12:55:20;99255.59;;;30.17;35.26
78932;BME280;68331;53.362;55.932;2023-08-07T12:57:46;99246.78;;;30.15;35.81
78932;BME280;68331;53.362;55.932;2023-08-07T13:00:15;99248.22;;;30.26;35.46
78932;BME280;68331;53.362;55.932;2023-08-07T13:02:43;99243.63;;;30.26;35.32
78932;BME280;68331;53.362;55.932;2023-08-07T13:05:11;99240.44;;;30.23;35.73
78932;BME280;68331;53.362;55.932;2023-08-07T13:07:39;99246.13;;;30.28;35.53
78932;BME280;68331;53.362;55.932;2023-08-07T13:10:07;99247.25;;;30.33;35.69
78932;BME280;68331;53.362;55.932;2023-08-07T13:12:35;99247.28;;;30.19;35.75
78932;BME280;68331;53.362;55.932;2023-08-07T13:15:03;99244.28;;;29.69;36.12